sensor_id;sensor_type;location;lat;lon;timestamp;pressure;altitude;pressure_sealevel;temperature;humidity
50302;BME280;36550;50.472;19.744;2022-12-18T00:02:21;99420.72;;;-4.07;78.21
50302;BME280;36550;50.472;19.744;2022-12-18T00:05:06;99419.78;;;-4.06;78.26
50302;BME280;36550;50.472;19.744;2022-12-18T00:07:50;99422.04;;;-4.01;78.43
50302;BME280;36550;50.472;19.744;2022-12-18T00:10:35;99437.90;;;-3.96;78.50
50302;BME280;36550;50.472;19.744;2022-12-18T00:13:19;99432.33;;;-3.95;78.38
50302;BME280;36550;50.472;19.744;2022-12-18T00:16:09;99435.80;;;-3.96;78.38
50302;BME280;36550;50.472;19.744;2022-12-18T00:18:56;99435.94;;;-3.92;78.40
50302;BME280;36550;50.472;19.744;2022-12-18T00:21:41;99440.73;;;-3.93;78.26
50302;BME280;36550;50.472;19.744;2022-12-18T00:24:27;99448.33;;;-3.92;78.27
50302;BME280;36550;50.472;19.744;2022-12-18T00:27:11;99447.65;;;-3.88;78.27
50302;BME280;36550;50.472;19.744;2022-12-18T00:29:55;99453.32;;;-3.90;78.13
50302;BME280;36550;50.472;19.744;2022-12-18T00:32:40;99450.05;;;-3.92;78.03
50302;BME280;36550;50.472;19.744;2022-12-18T00:35:24;99456.12;;;-3.93;78.07
50302;BME280;36550;50.472;19.744;2022-12-18T00:38:08;99459.86;;;-3.92;78.21
50302;BME280;36550;50.472;19.744;2022-12-18T00:40:53;99464.05;;;-3.91;78.19
50302;BME280;36550;50.472;19.744;2022-12-18T00:43:38;99462.47;;;-3.86;78.26
50302;BME280;36550;50.472;19.744;2022-12-18T00:46:23;99476.38;;;-3.77;78.36
50302;BME280;36550;50.472;19.744;2022-12-18T00:49:07;99476.38;;;-3.77;78.36
50302;BME280;36550;50.472;19.744;2022-12-18T00:51:52;99483.26;;;-3.78;78.05
50302;BME280;36550;50.472;19.744;2022-12-18T00:54:37;99483.73;;;-3.78;78.11
50302;BME280;36550;50.472;19.744;2022-12-18T00:57:21;99492.91;;;-3.81;77.81
50302;BME280;36550;50.472;19.744;2022-12-18T01:00:07;99488.02;;;-3.84;77.84
50302;BME280;36550;50.472;19.744;2022-12-18T01:02:52;99488.82;;;-3.84;77.93
50302;BME280;36550;50.472;19.744;2022-12-18T01:05:39;99492.30;;;-3.85;77.87
50302;BME280;36550;50.472;19.744;2022-12-18T01:08:24;99498.71;;;-3.85;77.95
50302;BME280;36550;50.472;19.744;2022-12-18T01:11:14;99493.75;;;-3.81;78.12
50302;BME280;36550;50.472;19.744;2022-12-18T01:13:57;99495.98;;;-3.76;78.12
50302;BME280;36550;50.472;19.744;2022-12-18T01:16:41;99498.55;;;-3.76;78.01
50302;BME280;36550;50.472;19.744;2022-12-18T01:19:26;99510.80;;;-3.74;77.93
50302;BME280;36550;50.472;19.744;2022-12-18T01:22:10;99515.45;;;-3.74;77.96
50302;BME280;36550;50.472;19.744;2022-12-18T01:24:54;99517.92;;;-3.72;77.97
50302;BME280;36550;50.472;19.744;2022-12-18T01:27:38;99519.58;;;-3.71;77.97
50302;BME280;36550;50.472;19.744;2022-12-18T01:30:23;99528.28;;;-3.74;77.74
50302;BME280;36550;50.472;19.744;2022-12-18T01:33:07;99531.42;;;-3.76;77.67
50302;BME280;36550;50.472;19.744;2022-12-18T01:35:51;99529.80;;;-3.77;77.78
50302;BME280;36550;50.472;19.744;2022-12-18T01:38:36;99533.89;;;-3.74;77.77
50302;BME280;36550;50.472;19.744;2022-12-18T01:41:23;99535.88;;;-3.72;77.83
50302;BME280;36550;50.472;19.744;2022-12-18T01:47:53;99529.88;;;-3.65;78.10
50302;BME280;36550;50.472;19.744;2022-12-18T01:50:48;99534.58;;;-3.59;77.70
50302;BME280;36550;50.472;19.744;2022-12-18T01:53:34;99533.90;;;-3.56;77.99
50302;BME280;36550;50.472;19.744;2022-12-18T01:56:19;99539.44;;;-3.49;78.10
50302;BME280;36550;50.472;19.744;2022-12-18T01:59:05;99537.52;;;-3.40;78.36
50302;BME280;36550;50.472;19.744;2022-12-18T02:01:51;99544.33;;;-3.33;78.47
50302;BME280;36550;50.472;19.744;2022-12-18T02:04:36;99544.97;;;-3.24;78.40
50302;BME280;36550;50.472;19.744;2022-12-18T02:07:31;99546.86;;;-3.20;78.26
50302;BME280;36550;50.472;19.744;2022-12-18T02:10:39;99549.29;;;-3.19;78.06
50302;BME280;36550;50.472;19.744;2022-12-18T02:13:34;99550.71;;;-3.20;77.73
50302;BME280;36550;50.472;19.744;2022-12-18T02:16:34;99554.90;;;-3.19;77.79
50302;BME280;36550;50.472;19.744;2022-12-18T02:19:37;99556.76;;;-3.21;77.49
50302;BME280;36550;50.472;19.744;2022-12-18T02:28:16;99565.77;;;-3.16;77.38
50302;BME280;36550;50.472;19.744;2022-12-18T02:31:05;99561.69;;;-3.18;77.39
50302;BME280;36550;50.472;19.744;2022-12-18T02:33:53;99564.02;;;-3.15;77.55
50302;BME280;36550;50.472;19.744;2022-12-18T02:36:40;99571.75;;;-3.10;77.69
50302;BME280;36550;50.472;19.744;2022-12-18T02:39:29;99576.95;;;-3.04;77.77
50302;BME280;36550;50.472;19.744;2022-12-18T02:42:15;99577.55;;;-3.00;77.80
50302;BME280;36550;50.472;19.744;2022-12-18T02:45:00;99583.39;;;-2.98;77.74
50302;BME280;36550;50.472;19.744;2022-12-18T02:47:47;99582.14;;;-2.93;77.89
50302;BME280;36550;50.472;19.744;2022-12-18T02:50:38;99586.12;;;-2.88;77.87
50302;BME280;36550;50.472;19.744;2022-12-18T02:53:49;99583.55;;;-2.88;77.69
50302;BME280;36550;50.472;19.744;2022-12-18T02:56:46;99592.55;;;-2.88;77.55
50302;BME280;36550;50.472;19.744;2022-12-18T02:59:39;99600.72;;;-2.89;77.50
50302;BME280;36550;50.472;19.744;2022-12-18T03:02:29;99598.59;;;-2.90;77.48
50302;BME280;36550;50.472;19.744;2022-12-18T03:05:17;99602.22;;;-2.92;77.36
50302;BME280;36550;50.472;19.744;2022-12-18T03:08:26;99609.81;;;-2.91;77.49
50302;BME280;36550;50.472;19.744;2022-12-18T03:11:10;99613.09;;;-2.88;77.37
50302;BME280;36550;50.472;19.744;2022-12-18T03:13:57;99614.14;;;-2.91;77.37
50302;BME280;36550;50.472;19.744;2022-12-18T03:16:43;99618.34;;;-2.90;77.26
50302;BME280;36550;50.472;19.744;2022-12-18T03:19:29;99626.52;;;-2.91;77.30
50302;BME280;36550;50.472;19.744;2022-12-18T03:22:16;99631.45;;;-2.87;77.33
50302;BME280;36550;50.472;19.744;2022-12-18T03:25:03;99626.85;;;-2.90;77.28
50302;BME280;36550;50.472;19.744;2022-12-18T03:27:51;99630.50;;;-2.86;77.48
50302;BME280;36550;50.472;19.744;2022-12-18T03:30:40;99629.61;;;-2.80;77.61
50302;BME280;36550;50.472;19.744;2022-12-18T03:33:28;99634.98;;;-2.77;77.57
50302;BME280;36550;50.472;19.744;2022-12-18T03:36:14;99642.48;;;-2.74;77.67
50302;BME280;36550;50.472;19.744;2022-12-18T03:38:59;99644.72;;;-2.69;77.71
50302;BME280;36550;50.472;19.744;2022-12-18T03:42:05;99649.64;;;-2.66;77.71
50302;BME280;36550;50.472;19.744;2022-12-18T03:47:58;99656.30;;;-2.64;77.63
50302;BME280;36550;50.472;19.744;2022-12-18T03:51:04;99657.95;;;-2.63;77.47
50302;BME280;36550;50.472;19.744;2022-12-18T03:53:58;99658.44;;;-2.63;77.58
50302;BME280;36550;50.472;19.744;2022-12-18T03:56:47;99663.78;;;-2.66;77.31
50302;BME280;36550;50.472;19.744;2022-12-18T03:59:34;99674.94;;;-2.73;76.91
50302;BME280;36550;50.472;19.744;2022-12-18T04:02:20;99674.34;;;-2.77;77.02
50302;BME280;36550;50.472;19.744;2022-12-18T04:05:07;99663.45;;;-2.80;77.08
50302;BME280;36550;50.472;19.744;2022-12-18T04:07:53;99667.31;;;-2.80;77.00
50302;BME280;36550;50.472;19.744;2022-12-18T04:10:38;99664.88;;;-2.82;76.90
50302;BME280;36550;50.472;19.744;2022-12-18T04:13:24;99666.97;;;-2.81;77.05
50302;BME280;36550;50.472;19.744;2022-12-18T04:16:13;99673.19;;;-2.78;77.13
50302;BME280;36550;50.472;19.744;2022-12-18T04:18:57;99678.94;;;-2.75;77.30
50302;BME280;36550;50.472;19.744;2022-12-18T04:21:43;99679.17;;;-2.72;77.28
50302;BME280;36550;50.472;19.744;2022-12-18T04:24:27;99682.11;;;-2.71;77.28
50302;BME280;36550;50.472;19.744;2022-12-18T04:27:11;99693.53;;;-2.69;77.16
50302;BME280;36550;50.472;19.744;2022-12-18T04:29:56;99687.92;;;-2.75;76.98
50302;BME280;36550;50.472;19.744;2022-12-18T04:32:40;99690.84;;;-2.74;77.15
50302;BME280;36550;50.472;19.744;2022-12-18T04:35:25;99693.00;;;-2.80;76.60
50302;BME280;36550;50.472;19.744;2022-12-18T04:38:10;99693.23;;;-2.83;76.80
50302;BME280;36550;50.472;19.744;2022-12-18T04:40:54;99696.37;;;-2.85;76.75
50302;BME280;36550;50.472;19.744;2022-12-18T04:43:38;99699.96;;;-2.88;76.81
50302;BME280;36550;50.472;19.744;2022-12-18T04:46:23;99705.71;;;-2.84;77.07
50302;BME280;36550;50.472;19.744;2022-12-18T04:49:07;99701.18;;;-2.81;77.06
50302;BME280;36550;50.472;19.744;2022-12-18T04:51:51;99712.88;;;-2.77;77.28
50302;BME280;36550;50.472;19.744;2022-12-18T04:54:36;99715.72;;;-2.74;77.26
50302;BME280;36550;50.472;19.744;2022-12-18T04:57:20;99721.36;;;-2.69;77.26
50302;BME280;36550;50.472;19.744;2022-12-18T05:00:06;99731.41;;;-2.66;77.32
50302;BME280;36550;50.472;19.744;2022-12-18T05:02:50;99733.53;;;-2.65;77.08
50302;BME280;36550;50.472;19.744;2022-12-18T05:05:35;99740.50;;;-2.67;76.88
50302;BME280;36550;50.472;19.744;2022-12-18T05:08:19;99730.93;;;-2.71;76.92
50302;BME280;36550;50.472;19.744;2022-12-18T05:11:06;99741.31;;;-2.73;76.69
50302;BME280;36550;50.472;19.744;2022-12-18T05:13:52;99740.13;;;-2.74;76.76
50302;BME280;36550;50.472;19.744;2022-12-18T05:16:36;99747.84;;;-2.74;76.79
50302;BME280;36550;50.472;19.744;2022-12-18T05:19:20;99755.55;;;-2.74;76.67
50302;BME280;36550;50.472;19.744;2022-12-18T05:22:05;99761.97;;;-2.74;76.61
50302;BME280;36550;50.472;19.744;2022-12-18T05:24:51;99762.44;;;-2.75;76.68
50302;BME280;36550;50.472;19.744;2022-12-18T05:27:35;99763.59;;;-2.73;76.62
50302;BME280;36550;50.472;19.744;2022-12-18T05:30:19;99772.59;;;-2.73;76.62
50302;BME280;36550;50.472;19.744;2022-12-18T05:33:03;99771.53;;;-2.76;76.28
50302;BME280;36550;50.472;19.744;2022-12-18T05:35:56;99765.78;;;-2.80;76.21
50302;BME280;36550;50.472;19.744;2022-12-18T05:38:41;99760.50;;;-2.84;76.17
50302;BME280;36550;50.472;19.744;2022-12-18T05:41:26;99761.56;;;-2.81;76.54
50302;BME280;36550;50.472;19.744;2022-12-18T05:44:10;99763.45;;;-2.77;76.62
50302;BME280;36550;50.472;19.744;2022-12-18T05:46:54;99766.39;;;-2.76;76.78
50302;BME280;36550;50.472;19.744;2022-12-18T05:49:39;99766.16;;;-2.73;76.89
50302;BME280;36550;50.472;19.744;2022-12-18T05:52:23;99763.05;;;-2.71;76.98
50302;BME280;36550;50.472;19.744;2022-12-18T05:55:07;99774.86;;;-2.68;77.00
50302;BME280;36550;50.472;19.744;2022-12-18T05:57:51;99777.33;;;-2.67;76.92
50302;BME280;36550;50.472;19.744;2022-12-18T06:00:37;99779.52;;;-2.68;76.92
50302;BME280;36550;50.472;19.744;2022-12-18T06:03:25;99776.61;;;-2.69;76.88
50302;BME280;36550;50.472;19.744;2022-12-18T06:06:18;99786.89;;;-2.69;76.74
50302;BME280;36550;50.472;19.744;2022-12-18T06:09:03;99788.06;;;-2.80;76.21
50302;BME280;36550;50.472;19.744;2022-12-18T06:11:53;99793.39;;;-2.89;76.09
50302;BME280;36550;50.472;19.744;2022-12-18T06:14:37;99801.05;;;-2.95;76.09
50302;BME280;36550;50.472;19.744;2022-12-18T06:17:21;99803.30;;;-3.03;76.02
50302;BME280;36550;50.472;19.744;2022-12-18T06:20:06;99806.28;;;-3.09;75.93
50302;BME280;36550;50.472;19.744;2022-12-18T06:22:51;99820.41;;;-3.09;76.17
50302;BME280;36550;50.472;19.744;2022-12-18T06:25:38;99817.47;;;-3.10;76.11
50302;BME280;36550;50.472;19.744;2022-12-18T06:28:23;99820.84;;;-3.10;76.28
50302;BME280;36550;50.472;19.744;2022-12-18T06:31:08;99822.41;;;-3.07;76.43
50302;BME280;36550;50.472;19.744;2022-12-18T06:33:53;99824.78;;;-3.04;76.61
50302;BME280;36550;50.472;19.744;2022-12-18T06:36:37;99825.94;;;-3.02;76.65
50302;BME280;36550;50.472;19.744;2022-12-18T06:39:21;99827.59;;;-3.01;76.69
50302;BME280;36550;50.472;19.744;2022-12-18T06:42:05;99836.02;;;-2.99;76.62
50302;BME280;36550;50.472;19.744;2022-12-18T06:44:50;99841.34;;;-3.02;76.52
50302;BME280;36550;50.472;19.744;2022-12-18T06:47:34;99842.95;;;-3.07;76.09
50302;BME280;36550;50.472;19.744;2022-12-18T06:50:18;99848.19;;;-3.08;76.16
50302;BME280;36550;50.472;19.744;2022-12-18T06:53:03;99853.89;;;-3.11;75.95
50302;BME280;36550;50.472;19.744;2022-12-18T06:55:47;99854.23;;;-3.10;76.06
50302;BME280;36550;50.472;19.744;2022-12-18T06:58:32;99855.42;;;-3.08;75.99
50302;BME280;36550;50.472;19.744;2022-12-18T07:01:16;99860.27;;;-3.03;76.18
50302;BME280;36550;50.472;19.744;2022-12-18T07:04:00;99866.65;;;-2.96;76.36
50302;BME280;36550;50.472;19.744;2022-12-18T07:06:44;99865.22;;;-2.87;76.61
50302;BME280;36550;50.472;19.744;2022-12-18T07:09:28;99877.45;;;-2.78;76.70
50302;BME280;36550;50.472;19.744;2022-12-18T07:12:13;99876.94;;;-2.71;76.67
50302;BME280;36550;50.472;19.744;2022-12-18T07:14:57;99888.08;;;-2.64;76.67
50302;BME280;36550;50.472;19.744;2022-12-18T07:17:42;99891.06;;;-2.58;76.62
50302;BME280;36550;50.472;19.744;2022-12-18T07:20:26;99891.20;;;-2.54;76.52
50302;BME280;36550;50.472;19.744;2022-12-18T07:23:10;99898.01;;;-2.53;76.07
50302;BME280;36550;50.472;19.744;2022-12-18T07:25:54;99904.16;;;-2.55;75.79
50302;BME280;36550;50.472;19.744;2022-12-18T07:28:40;99905.15;;;-2.50;76.06
50302;BME280;36550;50.472;19.744;2022-12-18T07:31:25;99910.02;;;-2.40;76.16
50302;BME280;36550;50.472;19.744;2022-12-18T07:34:11;99910.80;;;-2.33;76.08
50302;BME280;36550;50.472;19.744;2022-12-18T07:36:57;99908.98;;;-2.25;76.10
50302;BME280;36550;50.472;19.744;2022-12-18T07:39:41;99916.98;;;-2.17;76.02
50302;BME280;36550;50.472;19.744;2022-12-18T07:42:26;99913.88;;;-2.09;76.04
50302;BME280;36550;50.472;19.744;2022-12-18T07:45:18;99917.19;;;-2.07;75.67
50302;BME280;36550;50.472;19.744;2022-12-18T07:48:02;99928.23;;;-1.99;75.60
50302;BME280;36550;50.472;19.744;2022-12-18T07:50:47;99932.23;;;-1.95;75.55
50302;BME280;36550;50.472;19.744;2022-12-18T07:53:33;99931.92;;;-1.90;75.55
50302;BME280;36550;50.472;19.744;2022-12-18T07:56:18;99926.34;;;-1.84;75.37
50302;BME280;36550;50.472;19.744;2022-12-18T07:59:03;99925.59;;;-1.73;75.48
50302;BME280;36550;50.472;19.744;2022-12-18T08:01:48;99938.12;;;-1.69;74.91
50302;BME280;36550;50.472;19.744;2022-12-18T08:04:32;99943.56;;;-1.61;75.05
50302;BME280;36550;50.472;19.744;2022-12-18T08:07:16;99936.79;;;-1.56;74.81
50302;BME280;36550;50.472;19.744;2022-12-18T08:10:01;99939.53;;;-1.52;74.53
50302;BME280;36550;50.472;19.744;2022-12-18T08:12:45;99939.73;;;-1.55;73.97
50302;BME280;36550;50.472;19.744;2022-12-18T08:15:31;99939.70;;;-1.61;73.17
50302;BME280;36550;50.472;19.744;2022-12-18T08:18:16;99941.44;;;-1.61;73.36
50302;BME280;36550;50.472;19.744;2022-12-18T08:21:15;99947.02;;;-1.67;73.43
50302;BME280;36550;50.472;19.744;2022-12-18T08:23:58;99942.73;;;-1.80;72.63
50302;BME280;36550;50.472;19.744;2022-12-18T08:26:44;99950.58;;;-1.81;72.96
50302;BME280;36550;50.472;19.744;2022-12-18T08:29:28;99952.61;;;-1.73;73.36
50302;BME280;36550;50.472;19.744;2022-12-18T08:32:13;99957.72;;;-1.61;73.78
50302;BME280;36550;50.472;19.744;2022-12-18T08:34:58;99962.02;;;-1.48;73.56
50302;BME280;36550;50.472;19.744;2022-12-18T08:37:45;99964.09;;;-1.29;74.03
50302;BME280;36550;50.472;19.744;2022-12-18T08:40:29;99963.84;;;-1.08;74.39
50302;BME280;36550;50.472;19.744;2022-12-18T08:43:14;99969.28;;;-0.88;74.49
50302;BME280;36550;50.472;19.744;2022-12-18T08:46:19;99968.30;;;-0.69;74.43
50302;BME280;36550;50.472;19.744;2022-12-18T08:49:04;99980.18;;;-0.55;73.99
50302;BME280;36550;50.472;19.744;2022-12-18T08:51:53;99979.61;;;-0.42;73.91
50302;BME280;36550;50.472;19.744;2022-12-18T08:54:38;99978.66;;;-0.35;72.97
50302;BME280;36550;50.472;19.744;2022-12-18T08:57:22;99985.00;;;-0.28;73.11
50302;BME280;36550;50.472;19.744;2022-12-18T09:00:07;99982.31;;;-0.21;72.76
50302;BME280;36550;50.472;19.744;2022-12-18T09:02:52;99981.51;;;-0.15;72.27
50302;BME280;36550;50.472;19.744;2022-12-18T09:05:36;99989.84;;;-0.23;71.80
50302;BME280;36550;50.472;19.744;2022-12-18T09:08:21;99991.94;;;-0.28;71.30
50302;BME280;36550;50.472;19.744;2022-12-18T09:11:11;99994.99;;;-0.29;71.48
50302;BME280;36550;50.472;19.744;2022-12-18T09:13:59;100000.27;;;-0.30;71.29
50302;BME280;36550;50.472;19.744;2022-12-18T09:16:45;100005.05;;;-0.31;70.93
50302;BME280;36550;50.472;19.744;2022-12-18T09:19:29;99998.27;;;-0.38;70.38
50302;BME280;36550;50.472;19.744;2022-12-18T09:22:14;100004.70;;;-0.38;70.50
50302;BME280;36550;50.472;19.744;2022-12-18T09:24:58;100006.34;;;-0.37;70.69
50302;BME280;36550;50.472;19.744;2022-12-18T09:27:42;100007.30;;;-0.27;71.13
50302;BME280;36550;50.472;19.744;2022-12-18T09:30:26;100005.32;;;-0.17;71.21
50302;BME280;36550;50.472;19.744;2022-12-18T09:33:11;99996.52;;;-0.15;70.58
50302;BME280;36550;50.472;19.744;2022-12-18T09:35:55;100007.53;;;-0.13;70.94
50302;BME280;36550;50.472;19.744;2022-12-18T09:38:39;99998.53;;;-0.07;70.75
50302;BME280;36550;50.472;19.744;2022-12-18T09:44:43;100005.80;;;-0.07;69.33
50302;BME280;36550;50.472;19.744;2022-12-18T09:47:37;100010.59;;;0.04;69.97
50302;BME280;36550;50.472;19.744;2022-12-18T09:50:26;100004.51;;;0.10;70.18
50302;BME280;36550;50.472;19.744;2022-12-18T09:53:16;100005.09;;;0.08;69.85
50302;BME280;36550;50.472;19.744;2022-12-18T09:56:04;100009.31;;;-0.02;68.03
50302;BME280;36550;50.472;19.744;2022-12-18T09:58:59;100006.98;;;0.06;69.00
50302;BME280;36550;50.472;19.744;2022-12-18T10:01:44;100009.44;;;0.19;69.64
50302;BME280;36550;50.472;19.744;2022-12-18T10:04:30;100003.67;;;0.32;70.12
50302;BME280;36550;50.472;19.744;2022-12-18T10:07:23;100007.42;;;0.45;70.04
50302;BME280;36550;50.472;19.744;2022-12-18T10:10:21;100003.16;;;0.67;70.16
50302;BME280;36550;50.472;19.744;2022-12-18T10:25:45;100009.33;;;0.26;68.97
50302;BME280;36550;50.472;19.744;2022-12-18T10:28:30;100007.09;;;0.16;69.05
50302;BME280;36550;50.472;19.744;2022-12-18T10:31:18;100004.17;;;0.09;69.05
50302;BME280;36550;50.472;19.744;2022-12-18T10:34:10;100002.85;;;0.04;68.95
50302;BME280;36550;50.472;19.744;2022-12-18T10:36:55;100007.57;;;-0.07;68.11
50302;BME280;36550;50.472;19.744;2022-12-18T10:39:39;100005.91;;;-0.08;68.44
50302;BME280;36550;50.472;19.744;2022-12-18T10:42:23;100007.09;;;-0.01;68.93
50302;BME280;36550;50.472;19.744;2022-12-18T10:47:58;100001.12;;;-0.02;69.11
50302;BME280;36550;50.472;19.744;2022-12-18T10:50:46;100004.03;;;-0.12;69.08
50302;BME280;36550;50.472;19.744;2022-12-18T10:53:35;99997.09;;;-0.23;68.96
50302;BME280;36550;50.472;19.744;2022-12-18T10:56:20;100001.55;;;-0.36;68.88
50302;BME280;36550;50.472;19.744;2022-12-18T10:59:10;99996.11;;;-0.50;68.82
50302;BME280;36550;50.472;19.744;2022-12-18T11:01:57;99985.77;;;-0.61;68.69
50302;BME280;36550;50.472;19.744;2022-12-18T11:04:50;99982.80;;;-0.73;68.66
50302;BME280;36550;50.472;19.744;2022-12-18T11:07:49;99984.17;;;-0.86;68.43
50302;BME280;36550;50.472;19.744;2022-12-18T11:10:36;99980.16;;;-0.96;68.29
50302;BME280;36550;50.472;19.744;2022-12-18T11:13:25;99973.80;;;-1.03;68.55
50302;BME280;36550;50.472;19.744;2022-12-18T11:16:18;99976.83;;;-1.09;68.62
50302;BME280;36550;50.472;19.744;2022-12-18T11:28:27;99978.31;;;-1.42;68.23
50302;BME280;36550;50.472;19.744;2022-12-18T11:31:18;99991.36;;;-1.51;68.27
50302;BME280;36550;50.472;19.744;2022-12-18T11:34:34;99990.14;;;-1.58;68.44
50302;BME280;36550;50.472;19.744;2022-12-18T11:37:11;99992.72;;;-1.58;68.49
50302;BME280;36550;50.472;19.744;2022-12-18T11:40:14;99993.83;;;-1.49;68.68
50302;BME280;36550;50.472;19.744;2022-12-18T11:43:16;99999.12;;;-1.45;68.67
50302;BME280;36550;50.472;19.744;2022-12-18T11:46:15;100002.00;;;-1.56;67.88
50302;BME280;36550;50.472;19.744;2022-12-18T11:49:14;100001.66;;;-1.51;67.96
50302;BME280;36550;50.472;19.744;2022-12-18T11:52:15;100001.80;;;-1.47;67.91
50302;BME280;36550;50.472;19.744;2022-12-18T11:54:58;99996.13;;;-1.39;68.33
50302;BME280;36550;50.472;19.744;2022-12-18T12:07:26;99989.46;;;-0.88;69.40
50302;BME280;36550;50.472;19.744;2022-12-18T12:17:25;100004.36;;;-0.80;68.81
50302;BME280;36550;50.472;19.744;2022-12-18T12:20:46;100005.28;;;-0.81;68.54
50302;BME280;36550;50.472;19.744;2022-12-18T12:26:54;100010.01;;;-0.75;68.53
50302;BME280;36550;50.472;19.744;2022-12-18T12:33:05;100014.48;;;-0.71;68.34
50302;BME280;36550;50.472;19.744;2022-12-18T12:39:03;100018.86;;;-0.85;68.08
50302;BME280;36550;50.472;19.744;2022-12-18T12:41:52;100023.76;;;-0.93;68.03
50302;BME280;36550;50.472;19.744;2022-12-18T12:44:56;100015.24;;;-1.06;67.83
50302;BME280;36550;50.472;19.744;2022-12-18T12:47:43;100014.59;;;-1.21;67.61
50302;BME280;36550;50.472;19.744;2022-12-18T12:50:30;100017.91;;;-1.32;67.67
50302;BME280;36550;50.472;19.744;2022-12-18T12:53:33;100021.41;;;-1.39;67.78
50302;BME280;36550;50.472;19.744;2022-12-18T12:56:09;100017.82;;;-1.49;67.76
50302;BME280;36550;50.472;19.744;2022-12-18T12:59:15;100023.58;;;-1.64;67.61
50302;BME280;36550;50.472;19.744;2022-12-18T13:08:31;100047.23;;;-2.28;66.53
50302;BME280;36550;50.472;19.744;2022-12-18T13:11:42;100048.16;;;-2.49;66.60
50302;BME280;36550;50.472;19.744;2022-12-18T13:14:46;100051.18;;;-2.63;66.68
50302;BME280;36550;50.472;19.744;2022-12-18T13:17:30;100059.89;;;-2.78;66.85
50302;BME280;36550;50.472;19.744;2022-12-18T13:20:15;100061.95;;;-2.91;66.93
50302;BME280;36550;50.472;19.744;2022-12-18T13:22:59;100056.66;;;-3.02;67.09
50302;BME280;36550;50.472;19.744;2022-12-18T13:25:44;100050.63;;;-3.15;67.15
50302;BME280;36550;50.472;19.744;2022-12-18T13:28:50;100054.33;;;-3.26;67.19
50302;BME280;36550;50.472;19.744;2022-12-18T13:34:30;100063.38;;;-3.55;67.05
50302;BME280;36550;50.472;19.744;2022-12-18T13:37:41;100072.53;;;-3.73;66.76
50302;BME280;36550;50.472;19.744;2022-12-18T13:43:44;100075.70;;;-4.05;66.64
50302;BME280;36550;50.472;19.744;2022-12-18T13:46:47;100085.50;;;-4.19;66.68
50302;BME280;36550;50.472;19.744;2022-12-18T13:49:40;100084.64;;;-4.34;66.72
50302;BME280;36550;50.472;19.744;2022-12-18T13:52:33;100086.05;;;-4.51;66.56
50302;BME280;36550;50.472;19.744;2022-12-18T13:55:20;100091.08;;;-4.73;66.19
50302;BME280;36550;50.472;19.744;2022-12-18T13:58:05;100082.31;;;-4.92;66.17
50302;BME280;36550;50.472;19.744;2022-12-18T14:00:50;100081.77;;;-5.06;66.18
50302;BME280;36550;50.472;19.744;2022-12-18T14:03:34;100086.30;;;-5.18;66.46
50302;BME280;36550;50.472;19.744;2022-12-18T14:06:19;100099.28;;;-5.30;66.73
50302;BME280;36550;50.472;19.744;2022-12-18T14:09:04;100101.23;;;-5.42;66.92
50302;BME280;36550;50.472;19.744;2022-12-18T14:11:49;100103.95;;;-5.54;66.80
50302;BME280;36550;50.472;19.744;2022-12-18T14:14:34;100103.71;;;-5.83;65.93
50302;BME280;36550;50.472;19.744;2022-12-18T14:17:18;100103.92;;;-6.12;65.44
50302;BME280;36550;50.472;19.744;2022-12-18T14:20:03;100098.83;;;-6.29;65.79
50302;BME280;36550;50.472;19.744;2022-12-18T14:22:49;100095.30;;;-6.44;65.93
50302;BME280;36550;50.472;19.744;2022-12-18T14:25:33;100098.15;;;-6.59;65.87
50302;BME280;36550;50.472;19.744;2022-12-18T14:28:17;100104.19;;;-6.70;66.24
50302;BME280;36550;50.472;19.744;2022-12-18T14:31:01;100105.14;;;-6.82;66.42
50302;BME280;36550;50.472;19.744;2022-12-18T14:33:46;100112.13;;;-6.94;66.38
50302;BME280;36550;50.472;19.744;2022-12-18T14:36:30;100117.45;;;-7.09;66.16
50302;BME280;36550;50.472;19.744;2022-12-18T14:39:16;100114.78;;;-7.25;66.03
50302;BME280;36550;50.472;19.744;2022-12-18T14:42:01;100118.33;;;-7.38;66.12
50302;BME280;36550;50.472;19.744;2022-12-18T14:44:45;100121.80;;;-7.49;66.28
50302;BME280;36550;50.472;19.744;2022-12-18T14:47:29;100123.09;;;-7.59;66.50
50302;BME280;36550;50.472;19.744;2022-12-18T14:50:14;100127.64;;;-7.76;66.23
50302;BME280;36550;50.472;19.744;2022-12-18T14:52:58;100121.54;;;-7.92;66.06
50302;BME280;36550;50.472;19.744;2022-12-18T14:55:46;100121.60;;;-8.15;65.56
50302;BME280;36550;50.472;19.744;2022-12-18T14:58:31;100107.36;;;-8.41;65.06
50302;BME280;36550;50.472;19.744;2022-12-18T15:01:27;100107.63;;;-8.67;64.82
50302;BME280;36550;50.472;19.744;2022-12-18T15:04:33;100110.98;;;-8.89;64.89
50302;BME280;36550;50.472;19.744;2022-12-18T15:07:23;100109.30;;;-9.00;65.43
50302;BME280;36550;50.472;19.744;2022-12-18T15:10:14;100113.83;;;-9.08;65.84
50302;BME280;36550;50.472;19.744;2022-12-18T15:15:50;100128.02;;;-9.37;65.49
50302;BME280;36550;50.472;19.744;2022-12-18T15:18:40;100128.40;;;-9.47;65.65
50302;BME280;36550;50.472;19.744;2022-12-18T15:21:25;100136.67;;;-9.54;65.98
50302;BME280;36550;50.472;19.744;2022-12-18T15:24:22;100142.44;;;-9.61;66.11
50302;BME280;36550;50.472;19.744;2022-12-18T15:33:27;100143.30;;;-9.99;65.47
50302;BME280;36550;50.472;19.744;2022-12-18T15:36:10;100151.84;;;-10.15;65.30
50302;BME280;36550;50.472;19.744;2022-12-18T15:38:57;100153.78;;;-10.35;65.17
50302;BME280;36550;50.472;19.744;2022-12-18T15:41:42;100150.80;;;-10.61;64.33
50302;BME280;36550;50.472;19.744;2022-12-18T15:44:28;100149.32;;;-10.81;64.35
50302;BME280;36550;50.472;19.744;2022-12-18T15:47:12;100151.72;;;-10.92;64.65
50302;BME280;36550;50.472;19.744;2022-12-18T15:49:57;100158.17;;;-10.95;65.10
50302;BME280;36550;50.472;19.744;2022-12-18T15:52:46;100155.31;;;-10.99;65.34
50302;BME280;36550;50.472;19.744;2022-12-18T15:55:33;100154.86;;;-10.97;65.78
50302;BME280;36550;50.472;19.744;2022-12-18T15:58:35;100162.27;;;-10.91;66.30
50302;BME280;36550;50.472;19.744;2022-12-18T16:01:21;100154.84;;;-10.82;66.80
50302;BME280;36550;50.472;19.744;2022-12-18T16:04:10;100176.24;;;-10.77;66.78